Time;durP1;ratioP1;P1;durP2;ratioP2;P2;SDS_P1;SDS_P2;PMS_P1;PMS_P2;Temp;Humidity;BMP_temperature;BMP_pressure;BME280_temperature;BME280_humidity;BME280_pressure;Samples;Min_cycle;Max_cycle;Signal;HPM_P1;HPM_P2
2022/07/29 00:02:23;;;;;;;3.90;3.70;;;17.20;1.00;;;;;;6285108;28;20280;-55
2022/07/29 00:05:26;;;;;;;7.20;3.77;;;17.20;1.00;;;;;;6284540;28;20505;-54
2022/07/29 00:08:29;;;;;;;6.07;3.60;;;17.10;1.00;;;;;;6286756;28;20320;-55
2022/07/29 00:11:34;;;;;;;6.17;4.20;;;17.10;1.00;;;;;;6286484;28;20310;-55
2022/07/29 00:14:37;;;;;;;5.47;4.30;;;17.10;1.00;;;;;;6266442;28;20331;-54
2022/07/29 00:17:40;;;;;;;5.37;4.33;;;17.00;1.00;;;;;;6261861;28;20733;-54
2022/07/29 00:20:43;;;;;;;4.67;4.27;;;17.00;1.00;;;;;;6261821;28;20242;-55
2022/07/29 00:23:46;;;;;;;5.20;4.70;;;16.90;1.00;;;;;;6274131;28;20519;-54
2022/07/29 00:26:50;;;;;;;6.50;4.60;;;16.90;1.00;;;;;;6285483;28;20257;-54
2022/07/29 00:29:53;;;;;;;6.73;4.77;;;16.90;1.00;;;;;;6276455;28;20299;-55
2022/07/29 00:32:56;;;;;;;4.87;4.63;;;16.90;1.00;;;;;;6271315;28;20385;-55
2022/07/29 00:35:58;;;;;;;4.53;4.33;;;16.80;1.00;;;;;;6274532;28;20331;-53
2022/07/29 00:39:01;;;;;;;6.00;4.73;;;16.80;1.00;;;;;;6284269;28;20314;-54
2022/07/29 00:42:06;;;;;;;5.10;4.63;;;16.80;1.00;;;;;;6274344;28;20325;-54
2022/07/29 00:45:10;;;;;;;4.77;4.37;;;16.80;1.00;;;;;;6259421;28;20264;-54
2022/07/29 00:48:13;;;;;;;6.07;4.50;;;16.70;1.00;;;;;;6261575;28;20265;-53
2022/07/29 00:51:16;;;;;;;5.13;4.83;;;16.70;1.00;;;;;;6277162;28;20259;-52
2022/07/29 00:54:19;;;;;;;4.90;4.70;;;16.70;1.00;;;;;;6272473;28;20256;-55
2022/07/29 00:57:23;;;;;;;5.40;5.10;;;16.60;1.00;;;;;;6264053;28;20333;-53
2022/07/29 01:00:28;;;;;;;7.00;5.07;;;16.60;1.00;;;;;;6283995;28;20261;-55
2022/07/29 01:03:31;;;;;;;5.70;5.10;;;16.60;1.00;;;;;;6278902;28;20734;-55
2022/07/29 01:06:35;;;;;;;5.10;4.70;;;16.60;1.00;;;;;;6295614;28;20293;-54
2022/07/29 01:09:38;;;;;;;11.03;4.97;;;16.60;1.00;;;;;;6302478;28;20237;-54
2022/07/29 01:12:52;;;;;;;4.57;4.30;;;16.50;1.00;;;;;;6269694;28;20317;-54
2022/07/29 01:15:59;;;;;;;5.53;4.10;;;16.50;1.00;;;;;;6283158;28;20448;-55
2022/07/29 01:19:13;;;;;;;5.13;4.80;;;16.60;1.00;;;;;;6276022;28;20800;-55
2022/07/29 01:22:30;;;;;;;6.80;4.80;;;16.50;1.00;;;;;;6286194;28;20419;-54
2022/07/29 01:25:52;;;;;;;5.27;4.97;;;16.50;1.00;;;;;;6281532;28;20248;-54
2022/07/29 01:29:06;;;;;;;5.13;4.73;;;16.60;1.00;;;;;;6258777;28;20242;-53
2022/07/29 01:32:13;;;;;;;5.30;4.80;;;16.50;1.00;;;;;;6275162;28;20280;-55
2022/07/29 01:35:36;;;;;;;5.00;4.73;;;16.50;1.00;;;;;;6294785;28;20812;-55
2022/07/29 01:38:42;;;;;;;5.50;4.27;;;16.50;1.00;;;;;;6309334;28;20237;-54
2022/07/29 01:41:51;;;;;;;5.23;4.60;;;16.40;1.00;;;;;;6268111;28;20739;-55
2022/07/29 01:45:00;;;;;;;5.10;4.70;;;16.50;1.00;;;;;;6257599;28;20234;-55
2022/07/29 01:48:10;;;;;;;5.10;4.80;;;16.50;1.00;;;;;;6258361;28;20311;-55
2022/07/29 01:51:17;;;;;;;4.80;4.40;;;16.50;1.00;;;;;;6259076;28;20751;-54
2022/07/29 01:54:24;;;;;;;4.63;4.43;;;16.50;1.00;;;;;;6274121;28;20268;-53
2022/07/29 01:57:30;;;;;;;6.13;4.90;;;16.40;1.00;;;;;;6282525;28;20384;-55
2022/07/29 02:00:36;;;;;;;5.03;4.60;;;16.30;1.00;;;;;;6274470;28;20239;-54
2022/07/29 02:03:43;;;;;;;4.90;4.47;;;16.30;1.00;;;;;;6283240;28;20233;-54
2022/07/29 02:06:48;;;;;;;7.27;4.57;;;16.40;1.00;;;;;;6276686;28;20243;-53
2022/07/29 02:09:53;;;;;;;6.20;4.80;;;16.30;1.00;;;;;;6283159;28;20755;-53
2022/07/29 02:12:58;;;;;;;5.67;4.63;;;16.30;1.00;;;;;;6283355;28;20321;-54
2022/07/29 02:16:05;;;;;;;6.33;4.60;;;16.30;1.00;;;;;;6256717;28;20363;-53
2022/07/29 02:19:11;;;;;;;4.53;4.20;;;16.20;1.00;;;;;;6259345;28;20657;-53
2022/07/29 02:22:15;;;;;;;4.87;4.57;;;16.20;1.00;;;;;;6262295;28;20313;-53
2022/07/29 02:25:18;;;;;;;4.57;4.27;;;16.20;1.00;;;;;;6271644;28;20674;-55
2022/07/29 02:28:25;;;;;;;4.60;3.80;;;16.20;1.00;;;;;;6282679;28;20237;-55
2022/07/29 02:31:33;;;;;;;4.50;4.20;;;16.10;1.00;;;;;;6272847;28;20596;-54
2022/07/29 02:34:38;;;;;;;4.63;4.37;;;16.10;1.00;;;;;;6287663;28;20252;-54
2022/07/29 02:37:43;;;;;;;4.90;4.60;;;16.10;1.00;;;;;;6308365;28;20229;-54
2022/07/29 02:40:49;;;;;;;5.80;4.90;;;16.10;1.00;;;;;;6275254;28;20364;-54
2022/07/29 02:43:56;;;;;;;9.37;4.60;;;16.10;1.00;;;;;;6291370;28;20240;-55
2022/07/29 02:47:08;;;;;;;5.03;4.63;;;16.00;1.00;;;;;;6282646;28;20766;-54
2022/07/29 02:50:16;;;;;;;4.63;4.23;;;16.10;1.00;;;;;;6278409;28;20257;-55
2022/07/29 02:53:20;;;;;;;5.13;4.67;;;16.00;1.00;;;;;;6268170;28;20282;-55
2022/07/29 02:56:27;;;;;;;5.60;4.90;;;16.00;1.00;;;;;;6282006;28;20293;-54
2022/07/29 02:59:33;;;;;;;5.23;4.77;;;16.10;1.00;;;;;;6272001;28;20371;-55
2022/07/29 03:02:43;;;;;;;5.30;4.53;;;16.00;1.00;;;;;;6269577;28;20286;-55
2022/07/29 03:05:46;;;;;;;6.27;4.60;;;16.10;1.00;;;;;;6285851;28;20224;-55
2022/07/29 03:08:50;;;;;;;6.33;4.60;;;16.10;1.00;;;;;;6312475;28;20317;-54
2022/07/29 03:11:54;;;;;;;4.83;4.50;;;16.10;1.00;;;;;;6296452;28;20228;-54
2022/07/29 03:14:58;;;;;;;4.87;4.33;;;16.20;1.00;;;;;;6277293;28;20599;-54
2022/07/29 03:18:03;;;;;;;4.17;3.93;;;16.10;1.00;;;;;;6287180;28;20236;-54
2022/07/29 03:21:09;;;;;;;5.07;4.60;;;16.10;1.00;;;;;;6287160;28;20233;-53
2022/07/29 03:24:25;;;;;;;5.10;4.67;;;16.10;1.00;;;;;;6284542;28;20484;-55
2022/07/29 03:27:28;;;;;;;6.17;4.47;;;16.10;1.00;;;;;;6287307;28;20249;-54
2022/07/29 03:30:31;;;;;;;4.87;4.33;;;16.10;1.00;;;;;;6286719;28;20240;-55
2022/07/29 03:33:35;;;;;;;4.93;4.53;;;16.10;1.00;;;;;;6266062;28;20333;-55
2022/07/29 03:36:38;;;;;;;5.83;4.60;;;16.10;1.00;;;;;;6278173;28;20233;-55
2022/07/29 03:39:45;;;;;;;4.63;4.27;;;16.20;1.00;;;;;;6277413;28;20237;-55
2022/07/29 03:42:49;;;;;;;4.57;4.27;;;16.20;1.00;;;;;;6283191;28;20221;-54
2022/07/29 03:45:54;;;;;;;4.67;4.13;;;16.10;1.00;;;;;;6282420;28;20261;-55
2022/07/29 03:49:01;;;;;;;4.27;3.93;;;16.10;1.00;;;;;;6298043;28;20351;-54
2022/07/29 03:52:05;;;;;;;4.77;4.47;;;16.10;1.00;;;;;;6281700;28;20237;-55
2022/07/29 03:55:10;;;;;;;5.10;4.63;;;16.10;1.00;;;;;;6280617;28;20327;-54
2022/07/29 03:58:14;;;;;;;5.13;4.67;;;16.10;1.00;;;;;;6283678;28;20792;-53
2022/07/29 04:01:18;;;;;;;6.90;4.60;;;16.10;1.00;;;;;;6284176;28;20328;-55
2022/07/29 04:04:23;;;;;;;4.70;4.30;;;16.30;1.00;;;;;;6288422;28;20396;-53
2022/07/29 04:07:29;;;;;;;4.53;4.20;;;16.30;1.00;;;;;;6275039;28;20239;-53
2022/07/29 04:10:32;;;;;;;4.77;4.40;;;16.20;1.00;;;;;;6250401;28;20331;-54
2022/07/29 04:13:37;;;;;;;4.90;4.50;;;16.20;1.00;;;;;;6285490;28;20710;-54
2022/07/29 04:16:40;;;;;;;4.83;4.47;;;16.20;1.00;;;;;;6278121;28;20317;-54
2022/07/29 04:19:45;;;;;;;6.30;4.60;;;16.30;1.00;;;;;;6280033;28;20311;-54
2022/07/29 04:22:48;;;;;;;5.13;4.63;;;16.30;1.00;;;;;;6284490;28;20320;-54
2022/07/29 04:25:50;;;;;;;4.50;4.20;;;16.40;1.00;;;;;;6281592;28;20236;-53
2022/07/29 04:28:53;;;;;;;4.40;4.00;;;16.40;1.00;;;;;;6283888;28;20375;-55
2022/07/29 04:31:56;;;;;;;5.27;4.20;;;16.50;1.00;;;;;;6288960;28;20377;-54
2022/07/29 04:35:01;;;;;;;5.80;4.57;;;16.50;1.00;;;;;;6285920;28;20306;-55
2022/07/29 04:38:05;;;;;;;4.43;4.10;;;16.60;1.00;;;;;;6286176;28;20739;-55
2022/07/29 04:41:08;;;;;;;4.37;4.10;;;16.70;1.00;;;;;;6284967;28;20459;-54
2022/07/29 04:44:12;;;;;;;6.80;4.73;;;16.70;1.00;;;;;;6280860;28;20314;-54
2022/07/29 04:47:16;;;;;;;4.43;4.13;;;16.60;1.00;;;;;;6279133;28;20316;-55
2022/07/29 04:50:20;;;;;;;8.90;4.57;;;16.70;1.00;;;;;;6285692;28;20427;-54
2022/07/29 04:53:23;;;;;;;6.23;4.23;;;16.70;1.00;;;;;;6284304;28;20942;-55
2022/07/29 04:56:26;;;;;;;4.70;4.23;;;16.70;1.00;;;;;;6289214;28;20324;-55
2022/07/29 04:59:29;;;;;;;4.70;4.30;;;16.80;1.00;;;;;;6286691;28;20329;-53
2022/07/29 05:02:32;;;;;;;4.27;3.87;;;16.80;1.00;;;;;;6281848;28;20240;-55
2022/07/29 05:05:37;;;;;;;8.93;4.10;;;16.80;1.00;;;;;;6279019;28;20307;-54
2022/07/29 05:08:40;;;;;;;4.03;3.63;;;16.90;1.00;;;;;;6284652;28;20368;-54
2022/07/29 05:11:43;;;;;;;4.93;3.90;;;17.00;1.00;;;;;;6291405;28;20392;-54
2022/07/29 05:14:46;;;;;;;8.77;3.60;;;17.00;1.00;;;;;;6281062;28;20377;-53
2022/07/29 05:17:49;;;;;;;5.80;4.20;;;17.10;1.00;;;;;;6290965;28;20320;-53
2022/07/29 05:20:53;;;;;;;6.83;4.00;;;17.20;1.00;;;;;;6282721;28;20300;-55
2022/07/29 05:23:56;;;;;;;4.23;3.93;;;17.40;1.00;;;;;;6277274;28;20234;-56
2022/07/29 05:26:59;;;;;;;5.60;4.10;;;17.50;1.00;;;;;;6296596;28;20334;-55
2022/07/29 05:30:02;;;;;;;8.83;4.30;;;17.60;1.00;;;;;;6288574;28;20461;-55
2022/07/29 05:33:05;;;;;;;4.30;3.90;;;17.70;1.00;;;;;;6279539;28;20260;-54
2022/07/29 05:36:10;;;;;;;4.33;3.93;;;17.70;1.00;;;;;;6275949;28;20282;-54
2022/07/29 05:39:13;;;;;;;4.63;4.03;;;17.80;1.00;;;;;;6279687;28;20795;-55
2022/07/29 05:42:16;;;;;;;7.77;4.20;;;17.80;1.00;;;;;;6287642;28;20225;-55
2022/07/29 05:45:20;;;;;;;5.10;3.93;;;17.80;1.00;;;;;;6278532;28;20221;-55
2022/07/29 05:48:23;;;;;;;7.57;3.93;;;17.90;1.00;;;;;;6284765;28;20264;-54
2022/07/29 05:51:27;;;;;;;4.20;3.90;;;17.90;1.00;;;;;;6292995;28;20239;-56
2022/07/29 05:54:30;;;;;;;4.07;3.83;;;17.90;1.00;;;;;;6285932;28;20946;-54
2022/07/29 05:57:33;;;;;;;6.77;4.37;;;17.90;1.00;;;;;;6282747;28;20722;-55
2022/07/29 06:00:36;;;;;;;6.43;4.33;;;18.00;1.00;;;;;;6275138;28;20261;-56
2022/07/29 06:03:41;;;;;;;4.50;3.80;;;18.00;1.00;;;;;;6280527;28;20451;-55
2022/07/29 06:06:45;;;;;;;6.50;3.80;;;18.20;1.00;;;;;;6282097;28;21565;-55
2022/07/29 06:09:48;;;;;;;6.23;4.07;;;18.50;1.00;;;;;;6275088;28;20291;-56
2022/07/29 06:12:51;;;;;;;6.03;4.43;;;18.80;1.00;;;;;;6285170;28;20761;-54
2022/07/29 06:15:54;;;;;;;11.63;4.03;;;19.00;1.00;;;;;;6288913;28;20237;-55
2022/07/29 06:18:57;;;;;;;5.10;3.87;;;19.20;1.00;;;;;;6286719;28;20242;-55
2022/07/29 06:22:01;;;;;;;6.17;4.23;;;19.20;1.00;;;;;;6282645;28;20245;-54
2022/07/29 06:25:05;;;;;;;4.00;3.60;;;19.40;1.00;;;;;;6284534;28;20332;-55
2022/07/29 06:28:08;;;;;;;7.83;3.97;;;19.70;1.00;;;;;;6286285;28;20552;-55
2022/07/29 06:31:11;;;;;;;7.57;4.20;;;19.80;1.00;;;;;;6287285;28;20324;-54
2022/07/29 06:34:14;;;;;;;5.47;3.80;;;20.10;1.00;;;;;;6283806;28;20229;-54
2022/07/29 06:37:18;;;;;;;5.40;3.80;;;20.20;1.00;;;;;;6287465;28;20293;-53
2022/07/29 06:43:54;;;;;;;8.33;4.20;;;20.50;1.00;;;;;;6233735;28;20268;-57
2022/07/29 06:46:58;;;;;;;4.57;3.80;;;20.50;1.00;;;;;;6294305;28;20224;-55
2022/07/29 06:50:01;;;;;;;4.33;3.53;;;20.50;1.00;;;;;;6285333;28;20228;-56
2022/07/29 06:53:11;;;;;;;5.83;3.77;;;20.50;1.00;;;;;;6299629;28;20248;-54
2022/07/29 06:56:14;;;;;;;5.33;3.97;;;20.60;1.00;;;;;;6285248;28;20272;-54
2022/07/29 06:59:17;;;;;;;6.73;3.60;;;20.50;1.00;;;;;;6283221;28;20255;-54
2022/07/29 07:02:20;;;;;;;3.83;3.53;;;20.60;1.00;;;;;;6289972;28;20252;-55
2022/07/29 07:05:23;;;;;;;5.10;3.23;;;20.60;1.00;;;;;;6286320;28;20256;-54
2022/07/29 07:08:27;;;;;;;3.40;3.13;;;20.60;1.00;;;;;;6288060;28;20229;-55
2022/07/29 07:11:30;;;;;;;5.00;3.30;;;20.70;1.00;;;;;;6291371;28;20720;-54
2022/07/29 07:14:33;;;;;;;3.77;3.10;;;20.80;1.00;;;;;;6295243;28;21081;-55
2022/07/29 07:17:37;;;;;;;4.47;3.53;;;21.00;1.00;;;;;;6287788;28;20460;-54
2022/07/29 07:20:40;;;;;;;11.17;3.63;;;21.30;1.00;;;;;;6287343;28;20244;-54
2022/07/29 07:23:44;;;;;;;3.93;3.60;;;21.50;1.00;;;;;;6290679;28;20316;-54
2022/07/29 07:26:47;;;;;;;4.13;3.60;;;21.70;1.00;;;;;;6285904;28;20332;-55
2022/07/29 07:29:50;;;;;;;3.30;3.07;;;21.70;1.00;;;;;;6282784;28;20228;-55
2022/07/29 07:32:53;;;;;;;7.17;3.73;;;21.90;1.00;;;;;;6290037;28;20229;-53
2022/07/29 07:35:56;;;;;;;7.27;3.47;;;22.00;1.00;;;;;;6276228;28;20241;-54
2022/07/29 07:39:00;;;;;;;3.47;3.17;;;22.00;1.00;;;;;;6273820;28;20596;-55
2022/07/29 07:42:04;;;;;;;3.83;3.33;;;22.10;1.00;;;;;;6284578;28;20712;-53
2022/07/29 07:45:09;;;;;;;3.47;3.20;;;22.20;1.00;;;;;;6282383;28;20358;-53
2022/07/29 07:48:18;;;;;;;7.63;3.63;;;22.40;1.00;;;;;;6283217;28;20346;-54
2022/07/29 07:51:21;;;;;;;4.90;3.10;;;22.60;1.00;;;;;;6283668;28;20304;-55
2022/07/29 07:54:25;;;;;;;5.40;3.70;;;22.80;1.00;;;;;;6298169;28;20233;-54
2022/07/29 07:57:28;;;;;;;3.70;3.40;;;22.80;1.00;;;;;;6289015;28;20383;-53
2022/07/29 08:00:32;;;;;;;3.90;3.50;;;23.00;1.00;;;;;;6280783;28;20371;-54
2022/07/29 08:03:35;;;;;;;3.70;3.40;;;23.00;1.00;;;;;;6289652;28;20720;-55
2022/07/29 08:06:38;;;;;;;6.07;3.17;;;23.10;1.00;;;;;;6287790;28;20294;-56
2022/07/29 08:09:42;;;;;;;8.90;3.27;;;23.10;1.00;;;;;;6274166;28;20256;-54
2022/07/29 08:12:45;;;;;;;3.67;3.37;;;23.30;1.00;;;;;;6269179;28;20724;-54
2022/07/29 08:15:57;;;;;;;3.30;3.10;;;23.40;1.00;;;;;;6277201;28;20285;-54
2022/07/29 08:19:00;;;;;;;4.90;3.10;;;23.40;1.00;;;;;;6271417;28;20310;-54
2022/07/29 08:22:03;;;;;;;5.03;3.20;;;23.50;1.00;;;;;;6265798;28;20321;-54
2022/07/29 08:25:08;;;;;;;8.77;3.90;;;23.50;1.00;;;;;;6262266;28;20291;-54
2022/07/29 08:28:11;;;;;;;2.63;2.43;;;23.70;1.00;;;;;;6280392;28;20275;-55
2022/07/29 08:31:14;;;;;;;5.30;3.10;;;23.70;1.00;;;;;;6290964;28;20275;-54
2022/07/29 08:34:17;;;;;;;3.07;2.87;;;23.70;1.00;;;;;;6284050;28;20218;-55
2022/07/29 08:37:27;;;;;;;7.20;3.70;;;23.90;1.00;;;;;;6279769;28;20311;-55
2022/07/29 08:40:32;;;;;;;3.30;3.00;;;23.80;1.00;;;;;;6282697;28;20229;-55
2022/07/29 08:43:37;;;;;;;3.17;2.90;;;24.00;1.00;;;;;;6284996;28;20843;-55
2022/07/29 08:46:40;;;;;;;5.77;3.03;;;23.90;1.00;;;;;;6282733;28;20241;-55
2022/07/29 08:49:44;;;;;;;3.70;3.40;;;24.00;1.00;;;;;;6288621;28;20374;-55
2022/07/29 08:52:49;;;;;;;3.93;3.20;;;24.10;1.00;;;;;;6282948;28;20256;-54
2022/07/29 08:55:54;;;;;;;3.00;2.80;;;24.20;1.00;;;;;;6270756;28;20230;-56
2022/07/29 08:58:59;;;;;;;3.73;3.43;;;24.30;1.00;;;;;;6277272;28;20752;-55
2022/07/29 09:02:16;;;;;;;4.23;3.00;;;24.30;1.00;;;;;;6282497;28;20237;-54
2022/07/29 09:05:20;;;;;;;4.03;3.20;;;24.20;1.00;;;;;;6279775;28;20379;-55
2022/07/29 09:08:23;;;;;;;3.40;3.00;;;24.10;1.00;;;;;;6274241;28;20607;-55
2022/07/29 09:11:28;;;;;;;4.40;2.80;;;24.00;1.00;;;;;;6282539;28;20298;-55
2022/07/29 09:14:31;;;;;;;5.07;2.90;;;24.10;1.00;;;;;;6282961;28;20324;-54
2022/07/29 09:17:41;;;;;;;5.83;3.07;;;24.20;1.00;;;;;;6282776;28;20237;-54
2022/07/29 09:24:15;;;;;;;7.43;3.20;;;24.80;1.00;;;;;;6283213;28;20279;-54
2022/07/29 09:27:26;;;;;;;6.13;2.90;;;25.10;1.00;;;;;;6289097;28;20245;-54
2022/07/29 09:30:29;;;;;;;5.20;3.07;;;25.30;1.00;;;;;;6281980;28;20284;-55
2022/07/29 09:33:35;;;;;;;4.50;3.03;;;25.40;1.00;;;;;;6289013;28;20249;-55
2022/07/29 09:36:42;;;;;;;5.70;3.40;;;25.40;1.00;;;;;;6282785;28;20736;-55
2022/07/29 09:39:46;;;;;;;9.83;3.10;;;25.50;1.00;;;;;;6278387;28;20314;-54
2022/07/29 09:42:52;;;;;;;3.50;3.30;;;25.50;1.00;;;;;;6278717;28;20322;-55
2022/07/29 09:45:56;;;;;;;7.33;3.13;;;25.40;1.00;;;;;;6290921;28;20619;-55
2022/07/29 09:49:09;;;;;;;3.57;3.13;;;25.40;1.00;;;;;;6286566;28;20297;-54
2022/07/29 09:52:12;;;;;;;7.93;3.13;;;25.40;1.00;;;;;;6286796;28;20244;-55
2022/07/29 09:55:16;;;;;;;3.13;2.83;;;25.40;1.00;;;;;;6283371;28;20327;-54
2022/07/29 09:58:23;;;;;;;3.47;3.13;;;25.50;1.00;;;;;;6276918;28;20233;-54
2022/07/29 10:01:28;;;;;;;5.97;3.07;;;25.60;1.00;;;;;;6289409;28;20351;-54
2022/07/29 10:04:39;;;;;;;3.10;2.90;;;25.70;1.00;;;;;;6291359;28;20701;-55
2022/07/29 10:07:47;;;;;;;6.27;3.13;;;25.80;1.00;;;;;;6277745;28;20230;-54
2022/07/29 10:11:10;;;;;;;7.57;3.10;;;26.00;1.00;;;;;;6275184;28;20242;-56
2022/07/29 10:14:15;;;;;;;3.43;2.83;;;26.30;1.00;;;;;;6281685;28;20372;-57
2022/07/29 10:17:19;;;;;;;4.80;2.70;;;26.60;1.00;;;;;;6282752;28;20233;-55
2022/07/29 10:20:24;;;;;;;4.30;2.60;;;26.80;1.00;;;;;;6279363;28;20530;-55
2022/07/29 10:23:28;;;;;;;4.80;2.83;;;27.00;1.00;;;;;;6282367;28;21018;-62
2022/07/29 10:26:49;;;;;;;3.07;2.83;;;26.90;1.00;;;;;;6274940;28;20745;-59
2022/07/29 10:29:54;;;;;;;3.73;3.17;;;26.90;1.00;;;;;;6287884;28;20600;-55
2022/07/29 10:33:14;;;;;;;2.80;2.70;;;27.00;1.00;;;;;;6290062;28;20323;-56
2022/07/29 10:36:28;;;;;;;5.43;3.00;;;26.90;1.00;;;;;;6279604;28;20312;-55
2022/07/29 10:39:47;;;;;;;3.00;2.80;;;26.90;1.00;;;;;;6280056;28;20726;-56
2022/07/29 10:42:54;;;;;;;3.33;2.50;;;27.00;1.00;;;;;;6278453;28;20829;-54
2022/07/29 10:46:01;;;;;;;4.40;3.53;;;27.10;1.00;;;;;;6274604;28;20304;-55
2022/07/29 10:49:14;;;;;;;5.40;3.40;;;27.10;1.00;;;;;;6262098;28;20370;-55
2022/07/29 10:52:19;;;;;;;3.60;3.30;;;27.30;1.00;;;;;;6286175;28;20232;-54
2022/07/29 10:55:33;;;;;;;5.73;2.80;;;27.40;1.00;;;;;;6281486;28;20229;-58
2022/07/29 10:58:37;;;;;;;9.60;3.07;;;27.60;1.00;;;;;;6288459;28;20244;-55
2022/07/29 11:01:44;;;;;;;8.60;3.50;;;27.70;1.00;;;;;;6280628;28;20677;-55
2022/07/29 11:05:02;;;;;;;3.20;2.90;;;27.70;1.00;;;;;;6270603;28;20374;-53
2022/07/29 11:08:30;;;;;;;2.93;2.73;;;27.80;1.00;;;;;;6284357;28;20748;-57
2022/07/29 11:11:35;;;;;;;5.33;2.80;;;27.70;1.00;;;;;;6286166;28;20244;-54
2022/07/29 11:14:58;;;;;;;3.97;2.80;;;27.60;1.00;;;;;;6262734;28;20673;-55
2022/07/29 11:18:11;;;;;;;3.63;3.53;;;27.50;1.00;;;;;;6265881;28;20734;-55
2022/07/29 11:21:37;;;;;;;3.03;2.83;;;27.40;1.00;;;;;;6282069;28;20301;-55
2022/07/29 11:25:14;;;;;;;3.27;2.93;;;27.30;1.00;;;;;;6288120;28;20490;-56
2022/07/29 11:28:22;;;;;;;3.83;2.80;;;27.20;1.00;;;;;;6285409;28;20260;-56
2022/07/29 11:31:39;;;;;;;3.93;3.40;;;27.30;1.00;;;;;;6291171;28;20314;-55
2022/07/29 11:34:43;;;;;;;3.77;3.67;;;27.50;1.00;;;;;;6290419;28;20229;-55
2022/07/29 11:37:47;;;;;;;3.23;3.13;;;27.60;1.00;;;;;;6285174;28;20272;-55
2022/07/29 11:41:29;;;;;;;7.87;3.30;;;27.80;1.00;;;;;;6292758;28;20245;-55
2022/07/29 11:44:54;;;;;;;3.57;3.10;;;27.80;1.00;;;;;;6232748;28;20648;-56
2022/07/29 11:47:59;;;;;;;6.20;3.90;;;27.90;1.00;;;;;;6278411;28;20262;-54
2022/07/29 11:51:23;;;;;;;3.33;3.17;;;27.90;1.00;;;;;;6287713;28;20241;-54
2022/07/29 11:54:36;;;;;;;6.83;3.70;;;28.10;1.00;;;;;;6286573;28;20252;-54
2022/07/29 11:58:00;;;;;;;3.37;3.17;;;28.20;1.00;;;;;;6285531;28;20241;-55
2022/07/29 12:01:06;;;;;;;3.63;3.33;;;28.20;1.00;;;;;;6280152;28;20453;-55
2022/07/29 12:04:09;;;;;;;4.97;3.10;;;28.20;1.00;;;;;;6286777;28;20312;-54
2022/07/29 12:07:14;;;;;;;3.17;2.93;;;28.20;1.00;;;;;;6283436;28;20221;-54
2022/07/29 12:10:17;;;;;;;5.40;3.30;;;28.10;1.00;;;;;;6287311;28;20264;-56
2022/07/29 12:13:39;;;;;;;3.97;3.20;;;28.10;1.00;;;;;;6283899;28;20241;-56
2022/07/29 12:16:42;;;;;;;4.10;3.50;;;28.10;1.00;;;;;;6281542;28;20911;-55
2022/07/29 12:19:45;;;;;;;4.13;3.83;;;28.10;1.00;;;;;;6288921;28;20233;-54
2022/07/29 12:22:54;;;;;;;3.30;3.20;;;28.00;1.00;;;;;;6270001;28;20233;-54
2022/07/29 12:25:59;;;;;;;4.20;3.80;;;28.10;1.00;;;;;;6282894;28;21200;-54
2022/07/29 12:29:02;;;;;;;4.43;4.10;;;28.10;1.00;;;;;;6269494;28;20262;-54
2022/07/29 12:32:13;;;;;;;4.43;3.50;;;28.20;1.00;;;;;;6288340;28;20226;-56
2022/07/29 12:35:22;;;;;;;3.80;3.60;;;28.30;1.00;;;;;;6287701;28;20237;-55
2022/07/29 12:38:26;;;;;;;3.67;3.53;;;28.50;1.00;;;;;;6282596;28;20238;-54
2022/07/29 12:41:29;;;;;;;4.30;4.00;;;28.50;1.00;;;;;;6285720;28;20433;-55
2022/07/29 12:44:46;;;;;;;5.27;3.33;;;28.50;1.00;;;;;;6279760;28;20221;-55
2022/07/29 12:47:52;;;;;;;5.23;3.90;;;28.50;1.00;;;;;;6289109;28;20228;-55
2022/07/29 12:50:57;;;;;;;5.10;3.53;;;28.50;1.00;;;;;;6284492;28;20371;-54
2022/07/29 12:54:07;;;;;;;6.70;3.70;;;28.50;1.00;;;;;;6292845;28;20243;-55
2022/07/29 12:57:10;;;;;;;4.53;4.13;;;28.50;1.00;;;;;;6284964;28;20564;-56
2022/07/29 13:00:24;;;;;;;5.27;3.80;;;28.70;1.00;;;;;;6276874;28;20310;-55
2022/07/29 13:03:27;;;;;;;3.40;3.30;;;28.90;1.00;;;;;;6286790;28;20241;-54
2022/07/29 13:06:39;;;;;;;4.03;3.73;;;29.00;1.00;;;;;;6286062;28;20664;-53
2022/07/29 13:09:45;;;;;;;4.80;3.35;;;29.10;1.00;;;;;;6277299;28;20749;-55
2022/07/29 13:13:06;;;;;;;3.92;3.60;;;29.30;1.00;;;;;;6277496;28;20650;-55
2022/07/29 13:16:09;;;;;;;5.63;3.60;;;29.10;1.00;;;;;;6273418;28;20315;-56
2022/07/29 13:19:13;;;;;;;4.27;3.57;;;28.90;1.00;;;;;;6272364;28;20414;-55
2022/07/29 13:22:17;;;;;;;3.80;3.67;;;28.60;1.00;;;;;;6280934;28;20474;-55
2022/07/29 13:25:27;;;;;;;3.92;3.60;;;28.50;1.00;;;;;;6277575;28;20777;-55
2022/07/29 13:28:30;;;;;;;3.77;3.57;;;28.50;1.00;;;;;;6262774;28;20237;-55
2022/07/29 13:31:33;;;;;;;4.33;3.20;;;28.60;1.00;;;;;;6277110;28;20253;-55
2022/07/29 13:34:36;;;;;;;3.85;3.65;;;28.90;1.00;;;;;;6269904;28;20264;-54
2022/07/29 13:37:39;;;;;;;3.53;3.35;;;29.00;1.00;;;;;;6275949;28;20698;-54
2022/07/29 13:40:43;;;;;;;4.13;3.60;;;29.10;1.00;;;;;;6281912;28;20867;-54
2022/07/29 13:43:46;;;;;;;4.07;3.60;;;29.30;1.00;;;;;;6275281;28;20647;-55
2022/07/29 13:46:51;;;;;;;3.63;3.22;;;29.50;1.00;;;;;;6260137;28;20246;-56
2022/07/29 13:49:55;;;;;;;3.97;3.60;;;29.70;1.00;;;;;;6270336;28;20323;-55
2022/07/29 13:52:58;;;;;;;4.03;3.72;;;29.90;1.00;;;;;;6271362;28;20367;-56
2022/07/29 13:56:02;;;;;;;4.15;3.95;;;30.00;1.00;;;;;;6271901;28;20244;-55
2022/07/29 13:59:05;;;;;;;7.13;4.10;;;30.10;1.00;;;;;;6288302;28;20237;-54
2022/07/29 14:02:10;;;;;;;4.30;4.00;;;30.20;1.00;;;;;;6272919;28;20313;-55
2022/07/29 14:05:12;;;;;;;3.83;3.60;;;30.10;1.00;;;;;;6267168;28;20717;-55
2022/07/29 14:08:15;;;;;;;4.13;3.75;;;30.00;1.00;;;;;;6262101;28;20320;-56
2022/07/29 14:11:20;;;;;;;4.00;3.80;;;29.80;1.00;;;;;;6270110;28;20234;-54
2022/07/29 14:14:23;;;;;;;4.03;3.70;;;29.70;1.00;;;;;;6275610;28;20225;-55
2022/07/29 14:17:26;;;;;;;3.60;3.40;;;29.80;1.00;;;;;;6271897;28;20608;-55
2022/07/29 14:20:29;;;;;;;5.95;4.05;;;29.90;1.00;;;;;;6272656;28;20814;-55
2022/07/29 14:23:32;;;;;;;3.53;3.20;;;30.00;1.00;;;;;;6282561;28;20725;-55
2022/07/29 14:26:36;;;;;;;5.55;3.92;;;30.10;1.00;;;;;;6274285;28;20237;-55
2022/07/29 14:29:39;;;;;;;10.75;3.60;;;30.20;1.00;;;;;;6277051;28;20373;-55
2022/07/29 14:32:42;;;;;;;3.97;3.78;;;30.30;1.00;;;;;;6279838;28;20263;-55
2022/07/29 14:35:46;;;;;;;4.53;3.95;;;30.20;1.00;;;;;;6271601;28;20516;-61
2022/07/29 14:38:49;;;;;;;3.85;3.65;;;30.20;1.00;;;;;;6271561;28;20321;-59
2022/07/29 14:41:54;;;;;;;4.07;3.88;;;30.10;1.00;;;;;;6271087;28;20242;-55
2022/07/29 14:44:57;;;;;;;12.02;3.78;;;30.10;1.00;;;;;;6274204;28;20233;-55
2022/07/29 14:48:00;;;;;;;8.20;3.75;;;30.10;1.00;;;;;;6284569;28;20259;-55
2022/07/29 14:51:03;;;;;;;4.65;4.30;;;30.10;1.00;;;;;;6286046;28;20433;-56
2022/07/29 14:54:07;;;;;;;3.88;3.65;;;30.00;1.00;;;;;;6266574;28;20647;-55
2022/07/29 14:57:11;;;;;;;4.00;3.50;;;30.10;1.00;;;;;;6263994;28;20674;-56
2022/07/29 15:00:15;;;;;;;4.82;3.30;;;30.00;1.00;;;;;;6282776;28;20275;-55
2022/07/29 15:03:18;;;;;;;3.63;3.33;;;30.00;1.00;;;;;;6293921;28;20320;-56
2022/07/29 15:06:26;;;;;;;3.83;3.50;;;30.00;1.00;;;;;;6289795;28;20350;-56
2022/07/29 15:09:29;;;;;;;4.75;4.00;;;30.00;1.00;;;;;;6284186;28;20237;-56
2022/07/29 15:12:34;;;;;;;3.95;3.63;;;30.00;1.00;;;;;;6294487;28;20233;-56
2022/07/29 15:15:36;;;;;;;5.18;3.80;;;30.10;1.00;;;;;;6283470;28;20583;-56
2022/07/29 15:18:40;;;;;;;6.93;3.67;;;30.10;1.00;;;;;;6280688;28;20320;-56
2022/07/29 15:21:42;;;;;;;4.65;3.55;;;30.00;1.00;;;;;;6283565;28;20265;-54
2022/07/29 15:24:50;;;;;;;3.67;3.47;;;29.90;1.00;;;;;;6265138;28;20240;-55
2022/07/29 15:27:55;;;;;;;4.15;3.88;;;29.80;1.00;;;;;;6293343;28;20715;-56
2022/07/29 15:31:03;;;;;;;4.10;3.80;;;29.80;1.00;;;;;;6270795;28;20234;-59
2022/07/29 15:34:06;;;;;;;4.40;3.70;;;29.60;1.00;;;;;;6289293;28;20335;-56
2022/07/29 15:37:10;;;;;;;3.85;3.55;;;29.60;1.00;;;;;;6280576;28;20233;-55
2022/07/29 15:40:13;;;;;;;5.15;4.00;;;29.60;1.00;;;;;;6275236;28;20607;-56
2022/07/29 15:43:18;;;;;;;3.40;3.20;;;29.70;1.00;;;;;;6271951;28;20260;-55
2022/07/29 15:49:43;;;;;;;5.28;3.88;;;29.90;1.00;;;;;;6283942;28;20273;-55
2022/07/29 15:52:51;;;;;;;4.05;3.33;;;29.90;1.00;;;;;;6279056;28;20786;-54
2022/07/29 15:55:54;;;;;;;5.28;3.60;;;30.00;1.00;;;;;;6284503;28;20402;-54
2022/07/29 15:58:58;;;;;;;4.00;3.35;;;30.10;1.00;;;;;;6279595;28;20257;-55
2022/07/29 16:02:02;;;;;;;4.28;3.53;;;30.10;1.00;;;;;;6281718;28;20237;-54
2022/07/29 16:05:06;;;;;;;4.00;3.10;;;30.10;1.00;;;;;;6276958;28;20325;-55
2022/07/29 16:08:11;;;;;;;3.30;3.00;;;30.00;1.00;;;;;;6270834;28;20244;-60
2022/07/29 16:11:14;;;;;;;3.03;2.83;;;29.80;1.00;;;;;;6277127;28;20485;-56
2022/07/29 16:14:19;;;;;;;4.38;3.47;;;29.60;1.00;;;;;;6285095;28;20245;-56
2022/07/29 16:17:22;;;;;;;3.45;3.15;;;29.40;1.00;;;;;;6294221;28;20829;-56
2022/07/29 16:20:25;;;;;;;3.85;3.53;;;29.30;1.00;;;;;;6284513;28;20246;-56
2022/07/29 16:23:29;;;;;;;4.13;3.58;;;29.10;1.00;;;;;;6273812;28;20244;-55
2022/07/29 16:26:32;;;;;;;4.90;3.75;;;29.00;1.00;;;;;;6276622;28;20394;-54
2022/07/29 16:29:37;;;;;;;4.55;3.17;;;28.80;1.00;;;;;;6283885;28;20635;-55
2022/07/29 16:32:40;;;;;;;4.53;3.30;;;28.60;1.00;;;;;;6294335;28;20342;-55